NKS470 KLAX-KIAH
Flight info
| Callsign | NKS470 |
|---|---|
| Flight time | 2h 48m |
| Altitude | 37000 |
| Route | DOTSS2 CNERY BLH SPTFR Q4 FUSCO DIESL TTORO3 |
| Aircraft | A319/M-SDE3FGHIRWY/LB1 |
Departure
| Time | 2026-05-08 00:22 |
|---|---|
| Airport | Los Angeles International Airport (KLAX) |
Arrival
| Time | 2026-05-08 03:10 |
|---|---|
| Airport | George Bush Intercontinental Airport (KIAH) |
| Time | Latitude | Longitude | Altitude | Speed | Heading |
|---|---|---|---|---|---|
| 2026-05-07 23:55 | 33.93988 | -118.40381 | 123 ft | 0 kts | 309° |
| 2026-05-08 00:09 | 33.93988 | -118.40380 | 123 ft | 0 kts | 309° |
| 2026-05-08 00:10 | 33.93985 | -118.40376 | 123 ft | 2 kts | 310° |
| 2026-05-08 00:10 | 33.93975 | -118.40362 | 123 ft | 2 kts | 310° |
| 2026-05-08 00:11 | 33.93966 | -118.40347 | 123 ft | 2 kts | 310° |
| 2026-05-08 00:11 | 33.93959 | -118.40339 | 123 ft | 1 kts | 296° |
| 2026-05-08 00:11 | 33.93959 | -118.40322 | 122 ft | 2 kts | 241° |
| 2026-05-08 00:11 | 33.93971 | -118.40311 | 122 ft | 2 kts | 189° |
| 2026-05-08 00:12 | 33.93978 | -118.40310 | 122 ft | 1 kts | 165° |
| 2026-05-08 00:12 | 33.93983 | -118.40311 | 122 ft | 0 kts | 173° |
| 2026-05-08 00:15 | 33.93965 | -118.40308 | 122 ft | 8 kts | 171° |
| 2026-05-08 00:15 | 33.93892 | -118.40297 | 122 ft | 11 kts | 173° |
| 2026-05-08 00:15 | 33.93856 | -118.40225 | 121 ft | 13 kts | 84° |
| 2026-05-08 00:15 | 33.93868 | -118.40106 | 120 ft | 15 kts | 83° |
| 2026-05-08 00:16 | 33.93883 | -118.39969 | 118 ft | 17 kts | 83° |
| 2026-05-08 00:16 | 33.93898 | -118.39814 | 116 ft | 19 kts | 83° |
| 2026-05-08 00:16 | 33.93915 | -118.39651 | 114 ft | 20 kts | 83° |
| 2026-05-08 00:16 | 33.93930 | -118.39500 | 112 ft | 16 kts | 83° |
| 2026-05-08 00:17 | 33.93945 | -118.39358 | 110 ft | 17 kts | 83° |
| 2026-05-08 00:17 | 33.93961 | -118.39204 | 109 ft | 19 kts | 83° |
| 2026-05-08 00:17 | 33.93977 | -118.39040 | 107 ft | 20 kts | 83° |
| 2026-05-08 00:17 | 33.93994 | -118.38872 | 106 ft | 20 kts | 83° |
| 2026-05-08 00:18 | 33.94013 | -118.38697 | 106 ft | 20 kts | 83° |
| 2026-05-08 00:18 | 33.94030 | -118.38528 | 105 ft | 20 kts | 83° |
| 2026-05-08 00:18 | 33.94047 | -118.38352 | 104 ft | 21 kts | 83° |
| 2026-05-08 00:18 | 33.94064 | -118.38197 | 104 ft | 13 kts | 83° |
| 2026-05-08 00:19 | 33.94067 | -118.38161 | 103 ft | 0 kts | 83° |
| 2026-05-08 00:19 | 33.94068 | -118.38150 | 103 ft | 2 kts | 83° |
| 2026-05-08 00:19 | 33.94072 | -118.38116 | 103 ft | 5 kts | 83° |
| 2026-05-08 00:19 | 33.94078 | -118.38062 | 103 ft | 7 kts | 83° |
| 2026-05-08 00:20 | 33.94078 | -118.38023 | 103 ft | 3 kts | 123° |
| 2026-05-08 00:20 | 33.94051 | -118.38010 | 103 ft | 5 kts | 169° |
| 2026-05-08 00:20 | 33.94009 | -118.38001 | 103 ft | 6 kts | 172° |
| 2026-05-08 00:20 | 33.93984 | -118.38030 | 103 ft | 3 kts | 262° |
| 2026-05-08 00:21 | 33.93983 | -118.38032 | 103 ft | 0 kts | 263° |
| 2026-05-08 00:21 | 33.93983 | -118.38035 | 103 ft | 3 kts | 263° |
| 2026-05-08 00:21 | 33.93955 | -118.38308 | 104 ft | 67 kts | 263° |
| 2026-05-08 00:22 | 33.93872 | -118.39120 | 108 ft | 127 kts | 263° |
| 2026-05-08 00:22 | 33.93733 | -118.40375 | 254 ft | 162 kts | 261° |
| 2026-05-08 00:22 | 33.93582 | -118.41691 | 880 ft | 161 kts | 261° |
| 2026-05-08 00:22 | 33.93418 | -118.43027 | 1512 ft | 164 kts | 262° |
| 2026-05-08 00:23 | 33.93282 | -118.44370 | 2106 ft | 165 kts | 264° |
| 2026-05-08 00:23 | 33.93102 | -118.45793 | 2487 ft | 179 kts | 252° |
| 2026-05-08 00:23 | 33.92437 | -118.47128 | 2828 ft | 197 kts | 232° |
| 2026-05-08 00:23 | 33.91244 | -118.48089 | 3129 ft | 224 kts | 199° |
| 2026-05-08 00:24 | 33.89633 | -118.48437 | 3526 ft | 245 kts | 189° |
| 2026-05-08 00:24 | 33.87862 | -118.48667 | 3990 ft | 264 kts | 189° |
| 2026-05-08 00:24 | 33.85984 | -118.48938 | 4610 ft | 274 kts | 190° |
| 2026-05-08 00:24 | 33.84093 | -118.49268 | 5328 ft | 277 kts | 191° |
| 2026-05-08 00:25 | 33.82172 | -118.49624 | 5787 ft | 279 kts | 192° |
| 2026-05-08 00:25 | 33.80228 | -118.49987 | 6049 ft | 279 kts | 191° |
| 2026-05-08 00:25 | 33.78326 | -118.50347 | 6292 ft | 280 kts | 191° |
| 2026-05-08 00:25 | 33.76367 | -118.50723 | 6540 ft | 281 kts | 191° |
| 2026-05-08 00:26 | 33.74445 | -118.51102 | 6783 ft | 282 kts | 191° |
| 2026-05-08 00:26 | 33.72498 | -118.51493 | 6961 ft | 284 kts | 191° |
| 2026-05-08 00:26 | 33.70538 | -118.51894 | 6966 ft | 284 kts | 191° |
| 2026-05-08 00:26 | 33.68570 | -118.52235 | 6961 ft | 285 kts | 182° |
| 2026-05-08 00:27 | 33.66629 | -118.51789 | 6957 ft | 289 kts | 155° |
| 2026-05-08 00:27 | 33.65011 | -118.50317 | 6964 ft | 290 kts | 128° |
| 2026-05-08 00:27 | 33.64095 | -118.48202 | 6953 ft | 290 kts | 107° |
| 2026-05-08 00:27 | 33.63560 | -118.45860 | 6979 ft | 288 kts | 102° |
| 2026-05-08 00:28 | 33.63107 | -118.43523 | 6975 ft | 288 kts | 102° |
| 2026-05-08 00:28 | 33.62670 | -118.41185 | 6966 ft | 288 kts | 101° |
| 2026-05-08 00:28 | 33.62465 | -118.38773 | 7037 ft | 292 kts | 88° |
| 2026-05-08 00:28 | 33.62573 | -118.36356 | 7701 ft | 296 kts | 84° |
| 2026-05-08 00:29 | 33.62718 | -118.33926 | 8752 ft | 291 kts | 84° |
| 2026-05-08 00:29 | 33.62843 | -118.31534 | 9672 ft | 290 kts | 84° |
| 2026-05-08 00:29 | 33.62951 | -118.29116 | 10452 ft | 292 kts | 85° |
| 2026-05-08 00:29 | 33.63048 | -118.26642 | 10874 ft | 308 kts | 85° |
| 2026-05-08 00:30 | 33.63142 | -118.23993 | 11196 ft | 326 kts | 86° |
| 2026-05-08 00:30 | 33.63232 | -118.21192 | 11497 ft | 343 kts | 86° |
| 2026-05-08 00:30 | 33.63319 | -118.18301 | 11932 ft | 355 kts | 86° |
| 2026-05-08 00:30 | 33.63406 | -118.15322 | 12612 ft | 358 kts | 86° |
| 2026-05-08 00:31 | 33.63491 | -118.12350 | 13308 ft | 360 kts | 86° |
| 2026-05-08 00:31 | 33.63575 | -118.09339 | 13995 ft | 362 kts | 86° |
| 2026-05-08 00:31 | 33.63659 | -118.06309 | 14649 ft | 365 kts | 86° |
| 2026-05-08 00:31 | 33.63744 | -118.03278 | 15270 ft | 368 kts | 86° |
| 2026-05-08 00:32 | 33.63830 | -118.00210 | 15871 ft | 372 kts | 86° |
| 2026-05-08 00:32 | 33.63916 | -117.97067 | 16473 ft | 375 kts | 86° |
| 2026-05-08 00:32 | 33.64001 | -117.93951 | 17054 ft | 378 kts | 86° |
| 2026-05-08 00:32 | 33.64086 | -117.90788 | 17621 ft | 382 kts | 86° |
| 2026-05-08 00:33 | 33.64171 | -117.87607 | 18179 ft | 385 kts | 86° |
| 2026-05-08 00:33 | 33.64256 | -117.84367 | 18725 ft | 388 kts | 86° |
| 2026-05-08 00:33 | 33.64209 | -117.81107 | 19252 ft | 393 kts | 91° |
| 2026-05-08 00:33 | 33.63863 | -117.77846 | 19778 ft | 398 kts | 98° |
| 2026-05-08 00:34 | 33.63217 | -117.74618 | 20287 ft | 402 kts | 103° |
| 2026-05-08 00:34 | 33.62438 | -117.71388 | 20782 ft | 406 kts | 104° |
| 2026-05-08 00:34 | 33.61629 | -117.68138 | 21258 ft | 409 kts | 104° |
| 2026-05-08 00:34 | 33.60805 | -117.64831 | 21741 ft | 411 kts | 103° |
| 2026-05-08 00:35 | 33.59991 | -117.61562 | 22192 ft | 414 kts | 103° |
| 2026-05-08 00:35 | 33.59161 | -117.58214 | 22634 ft | 417 kts | 103° |
| 2026-05-08 00:35 | 33.58334 | -117.54882 | 23063 ft | 420 kts | 103° |
| 2026-05-08 00:35 | 33.57500 | -117.51514 | 23502 ft | 423 kts | 103° |
| 2026-05-08 00:36 | 33.56656 | -117.48108 | 23935 ft | 426 kts | 103° |
| 2026-05-08 00:36 | 33.55805 | -117.44681 | 24361 ft | 428 kts | 103° |
| 2026-05-08 00:36 | 33.54964 | -117.41293 | 24766 ft | 431 kts | 103° |
| 2026-05-08 00:36 | 33.54097 | -117.37812 | 25167 ft | 434 kts | 103° |
| 2026-05-08 00:37 | 33.53238 | -117.34363 | 25546 ft | 437 kts | 104° |
| 2026-05-08 00:37 | 33.52354 | -117.30827 | 25931 ft | 439 kts | 104° |
| 2026-05-08 00:37 | 33.51498 | -117.27274 | 26312 ft | 441 kts | 101° |
| 2026-05-08 00:38 | 33.50494 | -117.20050 | 27057 ft | 442 kts | 91° |
| 2026-05-08 00:38 | 33.50365 | -117.16360 | 27434 ft | 442 kts | 88° |
| 2026-05-08 00:38 | 33.50314 | -117.12714 | 27782 ft | 445 kts | 88° |
| 2026-05-08 00:38 | 33.50273 | -117.08985 | 28124 ft | 447 kts | 88° |
| 2026-05-08 00:39 | 33.50231 | -117.05257 | 28529 ft | 448 kts | 88° |
| 2026-05-08 00:39 | 33.50183 | -117.01555 | 29019 ft | 446 kts | 88° |
| 2026-05-08 00:39 | 33.50133 | -116.97849 | 29506 ft | 444 kts | 88° |
| 2026-05-08 00:39 | 33.50081 | -116.94145 | 29977 ft | 442 kts | 88° |
| 2026-05-08 00:40 | 33.50028 | -116.90439 | 30425 ft | 441 kts | 88° |
| 2026-05-08 00:40 | 33.49973 | -116.86750 | 30853 ft | 440 kts | 88° |
| 2026-05-08 00:40 | 33.49916 | -116.83086 | 31276 ft | 439 kts | 88° |
| 2026-05-08 00:40 | 33.49860 | -116.79478 | 31685 ft | 438 kts | 88° |
| 2026-05-08 00:41 | 33.49803 | -116.75835 | 32080 ft | 437 kts | 88° |
| 2026-05-08 00:41 | 33.49743 | -116.72208 | 32469 ft | 437 kts | 88° |
| 2026-05-08 00:41 | 33.49683 | -116.68545 | 32873 ft | 435 kts | 88° |
| 2026-05-08 00:41 | 33.49623 | -116.64971 | 33254 ft | 434 kts | 88° |
| 2026-05-08 00:42 | 33.49560 | -116.61347 | 33624 ft | 433 kts | 88° |
| 2026-05-08 00:42 | 33.49497 | -116.57739 | 34000 ft | 432 kts | 88° |
| 2026-05-08 00:42 | 33.49434 | -116.54176 | 34357 ft | 432 kts | 87° |
| 2026-05-08 00:42 | 33.49369 | -116.50594 | 34714 ft | 431 kts | 87° |
| 2026-05-08 00:43 | 33.49302 | -116.47017 | 35053 ft | 431 kts | 87° |
| 2026-05-08 00:43 | 33.49236 | -116.43427 | 35364 ft | 431 kts | 87° |
| 2026-05-08 00:43 | 33.49176 | -116.39857 | 35638 ft | 431 kts | 87° |
| 2026-05-08 00:43 | 33.49125 | -116.36278 | 35867 ft | 432 kts | 87° |
| 2026-05-08 00:44 | 33.49074 | -116.32641 | 36099 ft | 434 kts | 87° |
| 2026-05-08 00:44 | 33.49021 | -116.28986 | 36322 ft | 435 kts | 88° |
| 2026-05-08 00:44 | 33.48967 | -116.25374 | 36537 ft | 435 kts | 88° |
| 2026-05-08 00:44 | 33.48911 | -116.21767 | 36722 ft | 436 kts | 88° |
| 2026-05-08 00:45 | 33.48853 | -116.18150 | 36898 ft | 438 kts | 88° |
| 2026-05-08 00:45 | 33.48851 | -116.10870 | 36925 ft | 438 kts | 84° |
| 2026-05-08 00:46 | 33.49462 | -116.03629 | 36891 ft | 435 kts | 77° |
| 2026-05-08 00:46 | 33.50731 | -115.96589 | 36844 ft | 432 kts | 71° |
| 2026-05-08 00:47 | 33.52578 | -115.89788 | 36850 ft | 430 kts | 67° |
| 2026-05-08 00:47 | 33.54567 | -115.83019 | 36882 ft | 430 kts | 68° |
| 2026-05-08 00:48 | 33.56537 | -115.76286 | 36929 ft | 429 kts | 67° |
| 2026-05-08 00:48 | 33.58503 | -115.69536 | 36954 ft | 428 kts | 68° |
| 2026-05-08 00:49 | 33.60466 | -115.62775 | 36965 ft | 428 kts | 67° |
| 2026-05-08 00:49 | 33.62381 | -115.56030 | 36967 ft | 428 kts | 70° |
| 2026-05-08 00:50 | 33.63806 | -115.49076 | 36971 ft | 431 kts | 75° |
| 2026-05-08 00:50 | 33.64578 | -115.41962 | 36959 ft | 433 kts | 82° |
| 2026-05-08 00:51 | 33.64675 | -115.34659 | 36940 ft | 436 kts | 88° |
| 2026-05-08 00:51 | 33.64077 | -115.27388 | 36915 ft | 439 kts | 95° |
| 2026-05-08 00:52 | 33.62783 | -115.20199 | 36905 ft | 442 kts | 101° |
| 2026-05-08 00:52 | 33.61327 | -115.13012 | 36902 ft | 440 kts | 96° |
| 2026-05-08 00:53 | 33.60508 | -115.05798 | 36887 ft | 435 kts | 90° |
| 2026-05-08 00:53 | 33.60249 | -114.98561 | 36875 ft | 435 kts | 88° |
| 2026-05-08 00:54 | 33.60050 | -114.91331 | 36858 ft | 434 kts | 88° |
| 2026-05-08 00:54 | 33.59842 | -114.84092 | 36848 ft | 434 kts | 88° |
| 2026-05-08 00:55 | 33.59438 | -114.76870 | 36845 ft | 437 kts | 92° |
| 2026-05-08 00:55 | 33.58391 | -114.69664 | 36837 ft | 440 kts | 97° |
| 2026-05-08 00:56 | 33.57038 | -114.62483 | 36836 ft | 440 kts | 98° |
| 2026-05-08 00:56 | 33.55687 | -114.55359 | 36831 ft | 441 kts | 98° |
| 2026-05-08 00:57 | 33.54320 | -114.48161 | 36841 ft | 440 kts | 98° |
| 2026-05-08 00:57 | 33.52965 | -114.41042 | 36841 ft | 441 kts | 97° |
| 2026-05-08 00:58 | 33.51599 | -114.33888 | 36858 ft | 440 kts | 98° |
| 2026-05-08 00:58 | 33.50216 | -114.26656 | 36867 ft | 442 kts | 98° |
| 2026-05-08 00:59 | 33.48844 | -114.19522 | 36876 ft | 442 kts | 98° |
| 2026-05-08 00:59 | 33.47465 | -114.12362 | 36886 ft | 441 kts | 98° |
| 2026-05-08 01:00 | 33.46084 | -114.05214 | 36905 ft | 442 kts | 98° |
| 2026-05-08 01:00 | 33.45388 | -114.01624 | 36636 ft | 441 kts | 98° |
| 2026-05-08 01:00 | 33.44691 | -113.98043 | 36819 ft | 442 kts | 98° |
| 2026-05-08 01:01 | 33.43301 | -113.90893 | 36900 ft | 444 kts | 98° |
| 2026-05-08 01:01 | 33.41893 | -113.83684 | 36903 ft | 444 kts | 98° |
| 2026-05-08 01:02 | 33.40490 | -113.76524 | 36901 ft | 444 kts | 98° |
| 2026-05-08 01:02 | 33.38845 | -113.69380 | 36903 ft | 446 kts | 103° |
| 2026-05-08 01:03 | 33.36903 | -113.62318 | 36901 ft | 447 kts | 103° |
| 2026-05-08 01:03 | 33.34951 | -113.55250 | 36894 ft | 447 kts | 103° |
| 2026-05-08 01:04 | 33.33007 | -113.48229 | 36894 ft | 447 kts | 103° |
| 2026-05-08 01:04 | 33.31059 | -113.41200 | 36884 ft | 447 kts | 103° |
| 2026-05-08 01:05 | 33.29092 | -113.34115 | 36887 ft | 447 kts | 104° |
| 2026-05-08 01:05 | 33.27125 | -113.27054 | 36900 ft | 447 kts | 104° |
| 2026-05-08 01:06 | 33.25155 | -113.20000 | 36884 ft | 448 kts | 104° |
| 2026-05-08 01:06 | 33.23185 | -113.12960 | 36886 ft | 447 kts | 104° |
| 2026-05-08 01:07 | 33.21209 | -113.05911 | 36847 ft | 448 kts | 104° |
| 2026-05-08 01:07 | 33.19225 | -112.98858 | 36856 ft | 449 kts | 104° |
| 2026-05-08 01:07 | 33.18234 | -112.95344 | 37044 ft | 449 kts | 104° |
| 2026-05-08 01:08 | 33.17241 | -112.91822 | 36917 ft | 447 kts | 104° |
| 2026-05-08 01:08 | 33.15275 | -112.84870 | 36838 ft | 446 kts | 104° |
| 2026-05-08 01:09 | 33.13294 | -112.77872 | 36832 ft | 445 kts | 104° |
| 2026-05-08 01:09 | 33.11302 | -112.70856 | 36858 ft | 445 kts | 104° |
| 2026-05-08 01:10 | 33.09312 | -112.63866 | 36863 ft | 445 kts | 104° |
| 2026-05-08 01:10 | 33.07337 | -112.56936 | 36850 ft | 445 kts | 104° |
| 2026-05-08 01:11 | 33.05351 | -112.49960 | 36875 ft | 444 kts | 103° |
| 2026-05-08 01:11 | 33.03438 | -112.42979 | 36893 ft | 444 kts | 103° |
| 2026-05-08 01:12 | 33.01524 | -112.35984 | 36881 ft | 445 kts | 103° |
| 2026-05-08 01:12 | 32.99594 | -112.28956 | 36893 ft | 445 kts | 104° |
| 2026-05-08 01:13 | 32.97666 | -112.21955 | 36886 ft | 445 kts | 104° |
| 2026-05-08 01:13 | 32.95734 | -112.14967 | 36895 ft | 445 kts | 104° |
| 2026-05-08 01:14 | 32.93791 | -112.07957 | 36893 ft | 445 kts | 104° |
| 2026-05-08 01:14 | 32.91851 | -112.00970 | 36887 ft | 446 kts | 104° |
| 2026-05-08 01:15 | 32.89909 | -111.93994 | 36893 ft | 446 kts | 104° |
| 2026-05-08 01:15 | 32.87961 | -111.87007 | 36881 ft | 445 kts | 104° |
| 2026-05-08 01:16 | 32.86010 | -111.80034 | 36883 ft | 446 kts | 104° |
| 2026-05-08 01:16 | 32.84046 | -111.73038 | 36877 ft | 447 kts | 104° |
| 2026-05-08 01:17 | 32.82083 | -111.66055 | 36894 ft | 446 kts | 104° |
| 2026-05-08 01:17 | 32.80109 | -111.59055 | 36892 ft | 446 kts | 104° |
| 2026-05-08 01:18 | 32.78139 | -111.52075 | 36910 ft | 447 kts | 104° |
| 2026-05-08 01:18 | 32.76167 | -111.45104 | 36913 ft | 448 kts | 105° |
| 2026-05-08 01:19 | 32.74178 | -111.38107 | 36925 ft | 448 kts | 104° |
| 2026-05-08 01:19 | 32.72183 | -111.31089 | 36932 ft | 448 kts | 105° |
| 2026-05-08 01:20 | 32.70182 | -111.24076 | 36930 ft | 449 kts | 105° |
| 2026-05-08 01:20 | 32.68183 | -111.17083 | 36948 ft | 450 kts | 105° |
| 2026-05-08 01:21 | 32.66165 | -111.10044 | 36969 ft | 451 kts | 105° |
| 2026-05-08 01:21 | 32.64141 | -111.02998 | 37000 ft | 451 kts | 105° |
| 2026-05-08 01:22 | 32.62122 | -110.95994 | 37035 ft | 451 kts | 106° |
| 2026-05-08 01:22 | 32.60084 | -110.88922 | 37055 ft | 453 kts | 106° |
| 2026-05-08 01:23 | 32.58047 | -110.81881 | 37107 ft | 454 kts | 106° |
| 2026-05-08 01:23 | 32.55996 | -110.74819 | 37112 ft | 455 kts | 107° |
| 2026-05-08 01:24 | 32.53936 | -110.67717 | 37124 ft | 456 kts | 107° |
| 2026-05-08 01:24 | 32.51864 | -110.60622 | 37107 ft | 457 kts | 107° |
| 2026-05-08 01:25 | 32.49797 | -110.53549 | 37066 ft | 456 kts | 108° |
| 2026-05-08 01:25 | 32.47716 | -110.46436 | 37027 ft | 455 kts | 108° |
| 2026-05-08 01:26 | 32.45647 | -110.39394 | 37053 ft | 455 kts | 108° |
| 2026-05-08 01:26 | 32.43573 | -110.32345 | 37084 ft | 453 kts | 109° |
| 2026-05-08 01:27 | 32.41505 | -110.25315 | 37103 ft | 453 kts | 110° |
| 2026-05-08 01:27 | 32.39424 | -110.18274 | 37107 ft | 453 kts | 110° |
| 2026-05-08 01:28 | 32.37357 | -110.11306 | 37092 ft | 452 kts | 110° |
| 2026-05-08 01:28 | 32.35274 | -110.04298 | 37089 ft | 452 kts | 110° |
| 2026-05-08 01:29 | 32.33176 | -109.97251 | 37098 ft | 454 kts | 111° |
| 2026-05-08 01:29 | 32.31088 | -109.90239 | 37104 ft | 455 kts | 110° |
| 2026-05-08 01:30 | 32.29362 | -109.83051 | 37097 ft | 456 kts | 103° |
| 2026-05-08 01:30 | 32.28297 | -109.75663 | 37107 ft | 458 kts | 99° |
| 2026-05-08 01:31 | 32.27409 | -109.68227 | 37099 ft | 458 kts | 99° |
| 2026-05-08 01:31 | 32.26515 | -109.60775 | 37094 ft | 459 kts | 100° |
| 2026-05-08 01:32 | 32.25610 | -109.53320 | 37097 ft | 460 kts | 100° |
| 2026-05-08 01:32 | 32.24700 | -109.45867 | 37084 ft | 462 kts | 100° |
| 2026-05-08 01:33 | 32.23773 | -109.38345 | 37081 ft | 463 kts | 101° |
| 2026-05-08 01:33 | 32.22843 | -109.30804 | 37067 ft | 465 kts | 101° |
| 2026-05-08 01:34 | 32.21905 | -109.23274 | 37092 ft | 464 kts | 101° |
| 2026-05-08 01:34 | 32.20970 | -109.15744 | 37090 ft | 467 kts | 102° |
| 2026-05-08 01:35 | 32.20016 | -109.08154 | 37101 ft | 468 kts | 102° |
| 2026-05-08 01:35 | 32.19058 | -109.00562 | 37099 ft | 470 kts | 102° |
| 2026-05-08 01:36 | 32.18088 | -108.92897 | 37097 ft | 473 kts | 102° |
| 2026-05-08 01:36 | 32.17115 | -108.85264 | 37117 ft | 473 kts | 102° |
| 2026-05-08 01:37 | 32.16131 | -108.77561 | 37124 ft | 474 kts | 102° |
| 2026-05-08 01:37 | 32.15144 | -108.69896 | 37112 ft | 476 kts | 102° |
| 2026-05-08 01:38 | 32.14147 | -108.62183 | 37125 ft | 476 kts | 102° |
| 2026-05-08 01:38 | 32.13150 | -108.54486 | 37123 ft | 476 kts | 103° |
| 2026-05-08 01:39 | 32.12147 | -108.46797 | 37133 ft | 477 kts | 103° |
| 2026-05-08 01:39 | 32.11131 | -108.39060 | 37141 ft | 476 kts | 103° |
| 2026-05-08 01:40 | 32.10112 | -108.31324 | 37140 ft | 478 kts | 103° |
| 2026-05-08 01:40 | 32.09089 | -108.23583 | 37140 ft | 479 kts | 104° |
| 2026-05-08 01:41 | 32.08057 | -108.15837 | 37140 ft | 480 kts | 104° |
| 2026-05-08 01:41 | 32.07023 | -108.08073 | 37141 ft | 480 kts | 104° |
| 2026-05-08 01:42 | 32.05976 | -108.00305 | 37140 ft | 482 kts | 104° |
| 2026-05-08 01:42 | 32.04934 | -107.92551 | 37118 ft | 482 kts | 104° |
| 2026-05-08 01:43 | 32.03869 | -107.84725 | 37117 ft | 483 kts | 104° |
| 2026-05-08 01:43 | 32.02808 | -107.76946 | 37103 ft | 484 kts | 104° |
| 2026-05-08 01:44 | 32.01741 | -107.69115 | 37093 ft | 485 kts | 104° |
| 2026-05-08 01:44 | 32.00664 | -107.61297 | 37101 ft | 484 kts | 104° |
| 2026-05-08 01:45 | 31.99583 | -107.53474 | 37098 ft | 487 kts | 104° |
| 2026-05-08 01:45 | 31.98496 | -107.45637 | 37094 ft | 486 kts | 104° |
| 2026-05-08 01:46 | 31.97395 | -107.37741 | 37103 ft | 489 kts | 104° |
| 2026-05-08 01:46 | 31.96283 | -107.29795 | 37094 ft | 490 kts | 105° |
| 2026-05-08 01:47 | 31.95174 | -107.21924 | 37110 ft | 490 kts | 105° |
| 2026-05-08 01:47 | 31.94057 | -107.14030 | 37116 ft | 489 kts | 105° |
| 2026-05-08 01:48 | 31.92367 | -107.02145 | 37100 ft | 494 kts | 105° |
| 2026-05-08 01:48 | 31.91232 | -106.94222 | 37084 ft | 495 kts | 105° |
| 2026-05-08 01:49 | 31.90089 | -106.86254 | 37069 ft | 495 kts | 105° |
| 2026-05-08 01:49 | 31.88931 | -106.78228 | 37055 ft | 495 kts | 105° |
| 2026-05-08 01:50 | 31.87785 | -106.70293 | 37046 ft | 493 kts | 106° |
| 2026-05-08 01:50 | 31.86620 | -106.62325 | 37066 ft | 494 kts | 105° |
| 2026-05-08 01:51 | 31.85459 | -106.54388 | 37074 ft | 494 kts | 105° |
| 2026-05-08 01:51 | 31.84289 | -106.46413 | 37066 ft | 495 kts | 105° |
| 2026-05-08 01:52 | 31.83111 | -106.38429 | 37070 ft | 495 kts | 106° |
| 2026-05-08 01:52 | 31.81926 | -106.30435 | 37057 ft | 495 kts | 107° |
| 2026-05-08 01:53 | 31.80903 | -106.22470 | 37074 ft | 497 kts | 104° |
| 2026-05-08 01:53 | 31.79962 | -106.14436 | 37075 ft | 497 kts | 104° |
| 2026-05-08 01:54 | 31.79018 | -106.06416 | 37092 ft | 498 kts | 104° |
| 2026-05-08 01:54 | 31.78075 | -105.98488 | 37119 ft | 499 kts | 104° |
| 2026-05-08 01:55 | 31.77112 | -105.90434 | 37141 ft | 498 kts | 104° |
| 2026-05-08 01:55 | 31.76139 | -105.82367 | 37150 ft | 500 kts | 104° |
| 2026-05-08 01:56 | 31.75166 | -105.74301 | 37143 ft | 499 kts | 105° |
| 2026-05-08 01:56 | 31.74185 | -105.66237 | 37135 ft | 502 kts | 105° |
| 2026-05-08 01:57 | 31.73191 | -105.58139 | 37132 ft | 503 kts | 105° |
| 2026-05-08 01:57 | 31.72192 | -105.50018 | 37131 ft | 503 kts | 105° |
| 2026-05-08 01:58 | 31.71192 | -105.41917 | 37115 ft | 503 kts | 105° |
| 2026-05-08 01:58 | 31.70185 | -105.33827 | 37107 ft | 504 kts | 106° |
| 2026-05-08 01:59 | 31.69167 | -105.25674 | 37107 ft | 504 kts | 106° |
| 2026-05-08 01:59 | 31.68145 | -105.17541 | 37109 ft | 504 kts | 106° |
| 2026-05-08 02:00 | 31.67121 | -105.09440 | 37097 ft | 504 kts | 106° |
| 2026-05-08 02:00 | 31.66088 | -105.01311 | 37114 ft | 505 kts | 106° |
| 2026-05-08 02:01 | 31.65049 | -104.93192 | 37120 ft | 506 kts | 106° |
| 2026-05-08 02:01 | 31.64003 | -104.85021 | 37125 ft | 505 kts | 107° |
| 2026-05-08 02:02 | 31.62950 | -104.76865 | 37126 ft | 506 kts | 107° |
| 2026-05-08 02:02 | 31.61895 | -104.68730 | 37124 ft | 506 kts | 107° |
| 2026-05-08 02:03 | 31.60835 | -104.60578 | 37112 ft | 506 kts | 107° |
| 2026-05-08 02:03 | 31.59770 | -104.52462 | 37110 ft | 507 kts | 107° |
| 2026-05-08 02:04 | 31.58698 | -104.44316 | 37101 ft | 508 kts | 107° |
| 2026-05-08 02:04 | 31.57616 | -104.36137 | 37097 ft | 508 kts | 107° |
| 2026-05-08 02:05 | 31.56535 | -104.27982 | 37090 ft | 507 kts | 108° |
| 2026-05-08 02:05 | 31.55442 | -104.19815 | 37082 ft | 505 kts | 108° |
| 2026-05-08 02:06 | 31.54353 | -104.11723 | 37074 ft | 507 kts | 108° |
| 2026-05-08 02:06 | 31.53257 | -104.03590 | 37068 ft | 507 kts | 108° |
| 2026-05-08 02:07 | 31.52153 | -103.95449 | 37066 ft | 507 kts | 108° |
| 2026-05-08 02:07 | 31.51044 | -103.87306 | 37064 ft | 508 kts | 108° |
| 2026-05-08 02:08 | 31.49927 | -103.79142 | 37061 ft | 507 kts | 108° |
| 2026-05-08 02:08 | 31.48811 | -103.71018 | 37061 ft | 507 kts | 109° |
| 2026-05-08 02:09 | 31.47677 | -103.62829 | 37054 ft | 507 kts | 108° |
| 2026-05-08 02:09 | 31.46565 | -103.54676 | 37046 ft | 509 kts | 107° |
| 2026-05-08 02:10 | 31.45573 | -103.46500 | 37041 ft | 509 kts | 107° |
| 2026-05-08 02:10 | 31.44589 | -103.38314 | 37047 ft | 509 kts | 107° |
| 2026-05-08 02:11 | 31.43591 | -103.30148 | 37049 ft | 509 kts | 108° |
| 2026-05-08 02:11 | 31.42576 | -103.21940 | 37052 ft | 509 kts | 108° |
| 2026-05-08 02:12 | 31.41564 | -103.13799 | 37050 ft | 509 kts | 108° |
| 2026-05-08 02:12 | 31.40542 | -103.05607 | 37042 ft | 509 kts | 108° |
| 2026-05-08 02:13 | 31.39518 | -102.97455 | 37046 ft | 508 kts | 108° |
| 2026-05-08 02:13 | 31.38478 | -102.89245 | 37042 ft | 509 kts | 108° |
| 2026-05-08 02:14 | 31.37447 | -102.81110 | 37039 ft | 508 kts | 108° |
| 2026-05-08 02:14 | 31.36398 | -102.72921 | 37041 ft | 511 kts | 108° |
| 2026-05-08 02:15 | 31.35345 | -102.64724 | 37039 ft | 512 kts | 107° |
| 2026-05-08 02:15 | 31.34291 | -102.56522 | 37036 ft | 512 kts | 107° |
| 2026-05-08 02:16 | 31.33225 | -102.48285 | 37037 ft | 513 kts | 107° |
| 2026-05-08 02:16 | 31.32149 | -102.40049 | 37038 ft | 514 kts | 107° |
| 2026-05-08 02:17 | 31.31074 | -102.31799 | 37037 ft | 513 kts | 108° |
| 2026-05-08 02:17 | 31.29997 | -102.23624 | 37041 ft | 513 kts | 108° |
| 2026-05-08 02:18 | 31.28901 | -102.15371 | 37045 ft | 513 kts | 108° |
| 2026-05-08 02:18 | 31.27806 | -102.07121 | 37044 ft | 514 kts | 108° |
| 2026-05-08 02:19 | 31.26710 | -101.98912 | 37047 ft | 515 kts | 108° |
| 2026-05-08 02:19 | 31.25599 | -101.90665 | 37052 ft | 516 kts | 108° |
| 2026-05-08 02:20 | 31.24481 | -101.82359 | 37053 ft | 518 kts | 108° |
| 2026-05-08 02:20 | 31.23356 | -101.74058 | 37055 ft | 518 kts | 108° |
| 2026-05-08 02:21 | 31.22218 | -101.65718 | 37056 ft | 519 kts | 107° |
| 2026-05-08 02:21 | 31.21085 | -101.57428 | 37060 ft | 519 kts | 107° |
| 2026-05-08 02:22 | 31.19932 | -101.49071 | 37062 ft | 520 kts | 108° |
| 2026-05-08 02:22 | 31.18789 | -101.40793 | 37059 ft | 520 kts | 107° |
| 2026-05-08 02:23 | 31.17671 | -101.32436 | 37056 ft | 524 kts | 105° |
| 2026-05-08 02:23 | 31.16968 | -101.23949 | 37060 ft | 528 kts | 103° |
| 2026-05-08 02:24 | 31.16337 | -101.15398 | 37053 ft | 526 kts | 103° |
| 2026-05-08 02:24 | 31.15694 | -101.06928 | 37055 ft | 528 kts | 102° |
| 2026-05-08 02:25 | 31.15030 | -100.98396 | 37050 ft | 529 kts | 103° |
| 2026-05-08 02:25 | 31.14356 | -100.89848 | 37054 ft | 530 kts | 102° |
| 2026-05-08 02:26 | 31.13684 | -100.81314 | 37051 ft | 529 kts | 102° |
| 2026-05-08 02:26 | 31.13004 | -100.72790 | 37052 ft | 529 kts | 102° |
| 2026-05-08 02:27 | 31.12317 | -100.64256 | 37049 ft | 527 kts | 103° |
| 2026-05-08 02:27 | 31.11617 | -100.55727 | 37047 ft | 530 kts | 102° |
| 2026-05-08 02:28 | 31.10921 | -100.47248 | 37043 ft | 531 kts | 103° |
| 2026-05-08 02:28 | 31.10216 | -100.38671 | 37044 ft | 529 kts | 102° |
| 2026-05-08 02:29 | 31.09503 | -100.30164 | 37042 ft | 531 kts | 103° |
| 2026-05-08 02:29 | 31.08788 | -100.21575 | 37034 ft | 530 kts | 103° |
| 2026-05-08 02:30 | 31.08060 | -100.13039 | 37044 ft | 530 kts | 103° |
| 2026-05-08 02:30 | 31.07337 | -100.04555 | 37042 ft | 530 kts | 103° |
| 2026-05-08 02:31 | 31.06600 | -99.96011 | 37041 ft | 530 kts | 103° |
| 2026-05-08 02:31 | 31.05861 | -99.87491 | 37042 ft | 530 kts | 103° |
| 2026-05-08 02:32 | 31.05117 | -99.78993 | 37043 ft | 530 kts | 103° |
| 2026-05-08 02:32 | 31.04367 | -99.70464 | 37043 ft | 530 kts | 103° |
| 2026-05-08 02:33 | 31.03606 | -99.61883 | 37045 ft | 530 kts | 103° |
| 2026-05-08 02:33 | 31.02852 | -99.53428 | 37039 ft | 529 kts | 103° |
| 2026-05-08 02:34 | 31.02076 | -99.44874 | 37045 ft | 530 kts | 103° |
| 2026-05-08 02:34 | 31.01303 | -99.36330 | 37041 ft | 530 kts | 102° |
| 2026-05-08 02:35 | 31.00520 | -99.27766 | 37041 ft | 529 kts | 103° |
| 2026-05-08 02:35 | 30.99741 | -99.19273 | 37044 ft | 528 kts | 103° |
| 2026-05-08 02:36 | 30.98947 | -99.10746 | 37043 ft | 528 kts | 103° |
| 2026-05-08 02:36 | 30.98153 | -99.02276 | 37045 ft | 529 kts | 103° |
| 2026-05-08 02:37 | 30.97358 | -98.93767 | 37046 ft | 529 kts | 103° |
| 2026-05-08 02:37 | 30.96546 | -98.85233 | 37039 ft | 528 kts | 104° |
| 2026-05-08 02:38 | 30.95463 | -98.76862 | 37044 ft | 526 kts | 107° |
| 2026-05-08 02:38 | 30.94275 | -98.68445 | 37048 ft | 526 kts | 106° |
| 2026-05-08 02:39 | 30.93094 | -98.60078 | 37046 ft | 528 kts | 106° |
| 2026-05-08 02:39 | 30.91906 | -98.51620 | 37045 ft | 528 kts | 106° |
| 2026-05-08 02:40 | 30.90729 | -98.43225 | 37047 ft | 527 kts | 106° |
| 2026-05-08 02:40 | 30.89530 | -98.34756 | 37046 ft | 529 kts | 107° |
| 2026-05-08 02:41 | 30.88334 | -98.26347 | 37041 ft | 528 kts | 107° |
| 2026-05-08 02:41 | 30.87130 | -98.17916 | 37045 ft | 528 kts | 107° |
| 2026-05-08 02:42 | 30.85924 | -98.09499 | 37045 ft | 528 kts | 107° |
| 2026-05-08 02:42 | 30.84703 | -98.01033 | 37047 ft | 529 kts | 107° |
| 2026-05-08 02:43 | 30.83478 | -97.92572 | 37044 ft | 529 kts | 107° |
| 2026-05-08 02:43 | 30.82248 | -97.84194 | 37044 ft | 529 kts | 107° |
| 2026-05-08 02:44 | 30.81004 | -97.75770 | 37039 ft | 529 kts | 106° |
| 2026-05-08 02:44 | 30.79753 | -97.67336 | 37014 ft | 530 kts | 107° |
| 2026-05-08 02:45 | 30.79121 | -97.63076 | 36352 ft | 534 kts | 106° |
| 2026-05-08 02:45 | 30.78486 | -97.58846 | 35458 ft | 537 kts | 106° |
| 2026-05-08 02:45 | 30.77863 | -97.54684 | 34721 ft | 537 kts | 105° |
| 2026-05-08 02:45 | 30.77226 | -97.50405 | 34035 ft | 534 kts | 105° |
| 2026-05-08 02:46 | 30.76598 | -97.46198 | 33402 ft | 531 kts | 105° |
| 2026-05-08 02:46 | 30.75961 | -97.41946 | 32737 ft | 528 kts | 105° |
| 2026-05-08 02:46 | 30.75334 | -97.37772 | 32030 ft | 528 kts | 105° |
| 2026-05-08 02:46 | 30.74695 | -97.33555 | 31285 ft | 527 kts | 105° |
| 2026-05-08 02:47 | 30.74052 | -97.29311 | 30487 ft | 527 kts | 105° |
| 2026-05-08 02:47 | 30.73426 | -97.25168 | 29703 ft | 527 kts | 105° |
| 2026-05-08 02:47 | 30.72786 | -97.20951 | 28903 ft | 527 kts | 104° |
| 2026-05-08 02:47 | 30.72149 | -97.16760 | 28063 ft | 528 kts | 104° |
| 2026-05-08 02:48 | 30.71513 | -97.12591 | 27334 ft | 526 kts | 104° |
| 2026-05-08 02:48 | 30.70879 | -97.08418 | 26763 ft | 520 kts | 104° |
| 2026-05-08 02:48 | 30.70254 | -97.04313 | 26218 ft | 514 kts | 104° |
| 2026-05-08 02:48 | 30.69630 | -97.00261 | 25665 ft | 509 kts | 104° |
| 2026-05-08 02:49 | 30.69007 | -96.96222 | 25094 ft | 504 kts | 104° |
| 2026-05-08 02:49 | 30.68387 | -96.92207 | 24516 ft | 499 kts | 104° |
| 2026-05-08 02:49 | 30.67777 | -96.88274 | 23958 ft | 495 kts | 104° |
| 2026-05-08 02:49 | 30.67172 | -96.84359 | 23407 ft | 490 kts | 104° |
| 2026-05-08 02:50 | 30.66567 | -96.80455 | 22872 ft | 485 kts | 104° |
| 2026-05-08 02:50 | 30.65976 | -96.76668 | 22338 ft | 481 kts | 103° |
| 2026-05-08 02:50 | 30.65373 | -96.72816 | 21767 ft | 478 kts | 103° |
| 2026-05-08 02:50 | 30.64782 | -96.69056 | 21205 ft | 474 kts | 103° |
| 2026-05-08 02:51 | 30.64195 | -96.65329 | 20649 ft | 471 kts | 102° |
| 2026-05-08 02:51 | 30.63601 | -96.61559 | 20095 ft | 467 kts | 102° |
| 2026-05-08 02:51 | 30.63015 | -96.57859 | 19531 ft | 464 kts | 102° |
| 2026-05-08 02:51 | 30.62434 | -96.54185 | 18976 ft | 460 kts | 102° |
| 2026-05-08 02:52 | 30.61863 | -96.50573 | 18432 ft | 457 kts | 101° |
| 2026-05-08 02:52 | 30.61289 | -96.46973 | 17885 ft | 453 kts | 101° |
| 2026-05-08 02:52 | 30.60569 | -96.43429 | 17315 ft | 448 kts | 110° |
| 2026-05-08 02:52 | 30.59296 | -96.40158 | 16762 ft | 441 kts | 122° |
| 2026-05-08 02:53 | 30.57568 | -96.37209 | 16208 ft | 435 kts | 129° |
| 2026-05-08 02:53 | 30.55751 | -96.34405 | 15669 ft | 431 kts | 130° |
| 2026-05-08 02:53 | 30.53955 | -96.31651 | 15141 ft | 426 kts | 130° |
| 2026-05-08 02:53 | 30.52178 | -96.28890 | 14609 ft | 422 kts | 130° |
| 2026-05-08 02:54 | 30.50441 | -96.26163 | 14077 ft | 418 kts | 129° |
| 2026-05-08 02:54 | 30.48736 | -96.23476 | 13548 ft | 414 kts | 129° |
| 2026-05-08 02:54 | 30.47015 | -96.20761 | 13015 ft | 410 kts | 129° |
| 2026-05-08 02:54 | 30.45337 | -96.18117 | 12489 ft | 407 kts | 129° |
| 2026-05-08 02:55 | 30.43668 | -96.15485 | 12027 ft | 401 kts | 129° |
| 2026-05-08 02:55 | 30.40450 | -96.10410 | 11533 ft | 379 kts | 128° |
| 2026-05-08 02:55 | 30.38902 | -96.07973 | 11334 ft | 361 kts | 128° |
| 2026-05-08 02:56 | 30.37479 | -96.05732 | 11199 ft | 334 kts | 129° |
| 2026-05-08 02:56 | 30.35931 | -96.03807 | 11056 ft | 315 kts | 147° |
| 2026-05-08 02:56 | 30.34031 | -96.02671 | 10725 ft | 306 kts | 165° |
| 2026-05-08 02:56 | 30.31989 | -96.01927 | 10349 ft | 305 kts | 166° |
| 2026-05-08 02:57 | 30.29960 | -96.01227 | 9982 ft | 304 kts | 166° |
| 2026-05-08 02:57 | 30.27923 | -96.00513 | 9623 ft | 303 kts | 166° |
| 2026-05-08 02:57 | 30.25912 | -95.99793 | 9270 ft | 302 kts | 165° |
| 2026-05-08 02:57 | 30.23897 | -95.99062 | 8911 ft | 302 kts | 165° |
| 2026-05-08 02:58 | 30.21878 | -95.98325 | 8618 ft | 298 kts | 164° |
| 2026-05-08 02:58 | 30.19926 | -95.97608 | 8372 ft | 293 kts | 163° |
| 2026-05-08 02:58 | 30.18007 | -95.96901 | 8181 ft | 286 kts | 163° |
| 2026-05-08 02:58 | 30.16129 | -95.96210 | 8066 ft | 276 kts | 163° |
| 2026-05-08 02:59 | 30.14327 | -95.95547 | 7989 ft | 265 kts | 163° |
| 2026-05-08 02:59 | 30.12581 | -95.94902 | 7958 ft | 252 kts | 163° |
| 2026-05-08 02:59 | 30.10953 | -95.94299 | 7961 ft | 239 kts | 163° |
| 2026-05-08 02:59 | 30.09369 | -95.93713 | 7970 ft | 238 kts | 163° |
| 2026-05-08 03:00 | 30.07786 | -95.93127 | 7974 ft | 238 kts | 163° |
| 2026-05-08 03:00 | 30.06185 | -95.92537 | 7975 ft | 238 kts | 163° |
| 2026-05-08 03:00 | 30.04610 | -95.91956 | 7973 ft | 238 kts | 163° |
| 2026-05-08 03:00 | 30.03040 | -95.91341 | 7969 ft | 238 kts | 156° |
| 2026-05-08 03:01 | 30.01708 | -95.90185 | 7966 ft | 241 kts | 131° |
| 2026-05-08 03:01 | 30.00691 | -95.88606 | 7977 ft | 241 kts | 126° |
| 2026-05-08 03:01 | 29.99743 | -95.87021 | 7978 ft | 241 kts | 122° |
| 2026-05-08 03:01 | 29.99150 | -95.85204 | 7833 ft | 246 kts | 97° |
| 2026-05-08 03:02 | 29.99111 | -95.83221 | 7526 ft | 248 kts | 90° |
| 2026-05-08 03:02 | 29.99162 | -95.81246 | 7254 ft | 246 kts | 90° |
| 2026-05-08 03:02 | 29.99205 | -95.79279 | 7027 ft | 243 kts | 90° |
| 2026-05-08 03:02 | 29.99232 | -95.77369 | 6981 ft | 234 kts | 91° |
| 2026-05-08 03:03 | 29.99250 | -95.75474 | 6957 ft | 233 kts | 91° |
| 2026-05-08 03:03 | 29.99261 | -95.73599 | 6685 ft | 232 kts | 92° |
| 2026-05-08 03:03 | 29.99269 | -95.71737 | 6401 ft | 231 kts | 92° |
| 2026-05-08 03:03 | 29.99276 | -95.69913 | 6142 ft | 226 kts | 92° |
| 2026-05-08 03:04 | 29.99281 | -95.68117 | 5788 ft | 222 kts | 92° |
| 2026-05-08 03:04 | 29.99285 | -95.66350 | 5423 ft | 217 kts | 92° |
| 2026-05-08 03:04 | 29.99313 | -95.64632 | 5058 ft | 213 kts | 90° |
| 2026-05-08 03:04 | 29.99346 | -95.62924 | 4695 ft | 209 kts | 91° |
| 2026-05-08 03:05 | 29.99364 | -95.61276 | 4343 ft | 205 kts | 91° |
| 2026-05-08 03:05 | 29.99371 | -95.59644 | 4011 ft | 200 kts | 91° |
| 2026-05-08 03:05 | 29.99370 | -95.58083 | 3837 ft | 190 kts | 91° |
| 2026-05-08 03:05 | 29.99367 | -95.56564 | 3575 ft | 187 kts | 91° |
| 2026-05-08 03:06 | 29.99362 | -95.55086 | 3317 ft | 184 kts | 91° |
| 2026-05-08 03:06 | 29.99357 | -95.53612 | 3063 ft | 182 kts | 91° |
| 2026-05-08 03:06 | 29.99353 | -95.52166 | 2818 ft | 179 kts | 91° |
| 2026-05-08 03:06 | 29.99350 | -95.50725 | 2579 ft | 177 kts | 90° |
| 2026-05-08 03:07 | 29.99347 | -95.49314 | 2353 ft | 175 kts | 90° |
| 2026-05-08 03:07 | 29.99345 | -95.47924 | 2132 ft | 172 kts | 90° |
| 2026-05-08 03:07 | 29.99344 | -95.46539 | 1914 ft | 168 kts | 89° |
| 2026-05-08 03:07 | 29.99342 | -95.45194 | 1704 ft | 165 kts | 89° |
| 2026-05-08 03:08 | 29.99341 | -95.43909 | 1518 ft | 156 kts | 88° |
| 2026-05-08 03:08 | 29.99340 | -95.42703 | 1304 ft | 141 kts | 88° |
| 2026-05-08 03:08 | 29.99339 | -95.41607 | 1113 ft | 134 kts | 88° |
| 2026-05-08 03:08 | 29.99340 | -95.40538 | 945 ft | 133 kts | 88° |
| 2026-05-08 03:09 | 29.99340 | -95.39479 | 778 ft | 132 kts | 88° |
| 2026-05-08 03:09 | 29.99341 | -95.38418 | 607 ft | 132 kts | 87° |
| 2026-05-08 03:09 | 29.99343 | -95.37344 | 414 ft | 131 kts | 87° |
| 2026-05-08 03:09 | 29.99343 | -95.36299 | 249 ft | 130 kts | 87° |
| 2026-05-08 03:10 | 29.99344 | -95.35262 | 120 ft | 129 kts | 87° |
| 2026-05-08 03:10 | 29.99342 | -95.34295 | 101 ft | 102 kts | 90° |
| 2026-05-08 03:10 | 29.99342 | -95.33669 | 101 ft | 52 kts | 90° |
| 2026-05-08 03:10 | 29.99319 | -95.33336 | 101 ft | 38 kts | 107° |
| 2026-05-08 03:11 | 29.99252 | -95.33170 | 100 ft | 8 kts | 121° |
| 2026-05-08 03:11 | 29.99222 | -95.33132 | 100 ft | 6 kts | 165° |
| 2026-05-08 03:11 | 29.99183 | -95.33164 | 100 ft | 8 kts | 252° |
| 2026-05-08 03:11 | 29.99181 | -95.33239 | 100 ft | 10 kts | 266° |
| 2026-05-08 03:12 | 29.99178 | -95.33319 | 100 ft | 7 kts | 270° |
| 2026-05-08 03:12 | 29.99178 | -95.33385 | 100 ft | 9 kts | 269° |
| 2026-05-08 03:12 | 29.99177 | -95.33467 | 101 ft | 11 kts | 270° |
| 2026-05-08 03:12 | 29.99178 | -95.33562 | 101 ft | 12 kts | 270° |
| 2026-05-08 03:13 | 29.99178 | -95.33668 | 101 ft | 13 kts | 270° |
| 2026-05-08 03:13 | 29.99178 | -95.33784 | 101 ft | 15 kts | 270° |
| 2026-05-08 03:13 | 29.99178 | -95.33910 | 101 ft | 16 kts | 270° |
| 2026-05-08 03:13 | 29.99177 | -95.34031 | 101 ft | 15 kts | 270° |
| 2026-05-08 03:14 | 29.99178 | -95.34147 | 101 ft | 14 kts | 271° |
| 2026-05-08 03:14 | 29.99177 | -95.34261 | 101 ft | 13 kts | 270° |
| 2026-05-08 03:14 | 29.99177 | -95.34373 | 100 ft | 13 kts | 270° |
| 2026-05-08 03:14 | 29.99178 | -95.34483 | 101 ft | 13 kts | 270° |
| 2026-05-08 03:15 | 29.99178 | -95.34589 | 100 ft | 13 kts | 270° |
| 2026-05-08 03:15 | 29.99178 | -95.34696 | 100 ft | 13 kts | 270° |
| 2026-05-08 03:15 | 29.99176 | -95.34802 | 100 ft | 12 kts | 270° |
| 2026-05-08 03:15 | 29.99178 | -95.34915 | 100 ft | 18 kts | 271° |
| 2026-05-08 03:16 | 29.99178 | -95.35091 | 100 ft | 22 kts | 270° |
| 2026-05-08 03:16 | 29.99161 | -95.35261 | 100 ft | 20 kts | 223° |
| 2026-05-08 03:16 | 29.99026 | -95.35278 | 100 ft | 19 kts | 181° |
| 2026-05-08 03:16 | 29.98896 | -95.35278 | 100 ft | 18 kts | 180° |
| 2026-05-08 03:17 | 29.98772 | -95.35277 | 100 ft | 16 kts | 179° |
| 2026-05-08 03:17 | 29.98655 | -95.35277 | 100 ft | 16 kts | 180° |
| 2026-05-08 03:17 | 29.98566 | -95.35276 | 99 ft | 4 kts | 180° |
| 2026-05-08 03:17 | 29.98488 | -95.35265 | 99 ft | 18 kts | 162° |
| 2026-05-08 03:18 | 29.98384 | -95.35155 | 99 ft | 24 kts | 97° |
| 2026-05-08 03:18 | 29.98383 | -95.34932 | 99 ft | 29 kts | 91° |
| 2026-05-08 03:18 | 29.98447 | -95.34858 | 100 ft | 8 kts | 337° |
| 2026-05-08 03:18 | 29.98478 | -95.34890 | 100 ft | 0 kts | 310° |
| 2026-05-08 03:19 | 29.98481 | -95.34895 | 100 ft | 0 kts | 311° |
| 2026-05-08 03:19 | 29.98482 | -95.34896 | 100 ft | 0 kts | 312° |